Time;durP1;ratioP1;P1;durP2;ratioP2;P2;SDS_P1;SDS_P2;PMS_P1;PMS_P2;Temp;Humidity;BMP_temperature;BMP_pressure;BME280_temperature;BME280_humidity;BME280_pressure;Samples;Min_cycle;Max_cycle;Signal;HPM_P1;HPM_P2
2024/02/01 00:01:48;;;;;;;89.25;45.72;;;;;;;3.13;100.00;101630.00;5030821;28;20053;-44
2024/02/01 00:04:17;;;;;;;84.03;44.75;;;;;;;3.08;100.00;101642.31;5030776;28;20060;-45
2024/02/01 00:06:50;;;;;;;88.32;46.60;;;;;;;3.11;100.00;101653.75;5030560;28;20053;-43
2024/02/01 00:09:19;;;;;;;99.38;48.28;;;;;;;3.18;100.00;101633.44;5030642;28;20490;-44
2024/02/01 00:11:48;;;;;;;95.93;49.00;;;;;;;2.92;100.00;101616.97;5030495;28;20104;-43
2024/02/01 00:14:18;;;;;;;93.53;49.83;;;;;;;2.76;100.00;101603.91;5030871;28;20059;-43
2024/02/01 00:16:48;;;;;;;97.53;47.97;;;;;;;2.66;100.00;101611.88;5031630;28;20049;-43
2024/02/01 00:19:16;;;;;;;100.60;50.50;;;;;;;2.87;100.00;101628.41;5034685;28;20052;-44
2024/02/01 00:21:45;;;;;;;97.82;49.88;;;;;;;2.99;100.00;101622.22;5035016;28;20410;-44
2024/02/01 00:24:13;;;;;;;97.30;50.65;;;;;;;3.02;100.00;101630.06;5034852;28;20399;-42
2024/02/01 00:26:42;;;;;;;95.85;49.80;;;;;;;2.99;100.00;101616.94;5034888;28;20041;-44
2024/02/01 00:29:10;;;;;;;101.13;50.78;;;;;;;3.12;100.00;101631.75;5034479;28;20056;-44
2024/02/01 00:31:38;;;;;;;100.82;50.67;;;;;;;3.14;100.00;101600.09;5035076;28;20041;-43
2024/02/01 00:34:08;;;;;;;95.20;50.13;;;;;;;3.06;100.00;101599.28;5035419;28;20136;-45
2024/02/01 00:36:37;;;;;;;101.25;51.55;;;;;;;2.88;100.00;101593.25;5035592;28;20132;-44
2024/02/01 00:39:06;;;;;;;95.13;49.50;;;;;;;2.98;100.00;101609.88;5034768;28;20164;-42
2024/02/01 00:41:36;;;;;;;102.03;51.67;;;;;;;2.99;100.00;101592.31;5034467;28;20053;-45
2024/02/01 00:44:05;;;;;;;103.10;53.08;;;;;;;3.12;100.00;101609.78;5034151;28;20057;-49
2024/02/01 00:46:33;;;;;;;102.03;53.45;;;;;;;3.17;100.00;101610.63;5034079;28;20152;-45
2024/02/01 00:49:01;;;;;;;99.78;53.45;;;;;;;3.05;100.00;101600.19;5034257;28;20123;-44
2024/02/01 00:51:32;;;;;;;102.65;54.03;;;;;;;2.95;100.00;101593.22;5016424;28;20479;-44
2024/02/01 00:54:00;;;;;;;105.63;54.58;;;;;;;3.07;100.00;101599.28;5034025;28;20045;-43
2024/02/01 00:56:28;;;;;;;105.03;52.35;;;;;;;3.17;100.00;101593.03;5033901;28;20045;-45
2024/02/01 00:58:57;;;;;;;107.53;53.45;;;;;;;3.25;100.00;101585.06;5033509;28;20050;-42
2024/02/01 01:01:26;;;;;;;103.97;53.00;;;;;;;3.10;100.00;101593.13;5034221;28;20137;-44
2024/02/01 01:03:55;;;;;;;105.97;53.30;;;;;;;3.12;100.00;101576.38;5016713;28;20045;-43
2024/02/01 01:06:23;;;;;;;109.55;53.40;;;;;;;3.07;100.00;101582.56;5033920;28;20486;-45
2024/02/01 01:08:53;;;;;;;103.22;52.80;;;;;;;3.06;100.00;101576.44;5033972;28;20065;-43
2024/02/01 01:11:23;;;;;;;109.53;54.58;;;;;;;2.96;100.00;101573.88;5033915;28;20049;-43
2024/02/01 01:13:51;;;;;;;99.20;52.67;;;;;;;2.89;100.00;101562.50;5033958;28;20077;-46
2024/02/01 01:16:19;;;;;;;101.03;52.40;;;;;;;2.92;100.00;101570.41;5033929;28;20057;-46
2024/02/01 01:18:48;;;;;;;104.47;53.85;;;;;;;2.97;100.00;101576.50;5034055;28;20045;-43
2024/02/01 01:21:17;;;;;;;107.75;52.15;;;;;;;3.05;100.00;101564.16;5034142;28;20075;-47
2024/02/01 01:23:45;;;;;;;101.22;53.22;;;;;;;3.17;100.00;101569.31;5034231;28;20077;-44
2024/02/01 01:26:21;;;;;;;103.00;52.38;;;;;;;3.22;100.00;101566.63;5034209;28;20045;-44
2024/02/01 01:28:49;;;;;;;104.53;52.13;;;;;;;3.32;100.00;101565.66;5032745;28;20616;-47
2024/02/01 01:31:17;;;;;;;98.90;53.22;;;;;;;3.28;100.00;101556.03;5034170;28;20060;-45
2024/02/01 01:33:46;;;;;;;104.00;51.63;;;;;;;3.30;100.00;101546.34;5033781;28;20085;-44
2024/02/01 01:36:14;;;;;;;99.22;50.97;;;;;;;3.21;100.00;101549.06;5033393;28;20049;-45
2024/02/01 01:38:43;;;;;;;96.88;50.63;;;;;;;2.90;100.00;101539.69;5033669;28;20053;-43
2024/02/01 01:41:11;;;;;;;103.75;51.28;;;;;;;3.04;100.00;101546.56;5033666;28;20053;-43
2024/02/01 01:43:41;;;;;;;94.25;48.38;;;;;;;3.07;100.00;101537.75;5034916;28;20060;-45
2024/02/01 01:46:09;;;;;;;90.60;49.15;;;;;;;3.14;100.00;101536.81;5034307;28;20401;-43
2024/02/01 01:48:38;;;;;;;99.80;50.05;;;;;;;3.15;100.00;101534.16;5033526;28;20077;-44
2024/02/01 01:51:08;;;;;;;96.93;49.53;;;;;;;3.05;100.00;101521.09;5033873;28;20052;-43
2024/02/01 01:53:40;;;;;;;99.70;49.63;;;;;;;2.79;100.00;101514.28;5033361;28;20077;-46
2024/02/01 01:56:09;;;;;;;98.18;49.85;;;;;;;2.96;100.00;101521.16;5033040;28;20062;-46
2024/02/01 01:58:39;;;;;;;94.85;49.00;;;;;;;3.01;100.00;101520.25;5032974;28;20130;-44
2024/02/01 02:01:10;;;;;;;94.82;50.40;;;;;;;3.12;100.00;101512.25;5032846;28;20137;-46
2024/02/01 02:03:39;;;;;;;100.20;49.38;;;;;;;3.08;100.00;101505.22;5032774;28;20053;-44
2024/02/01 02:06:07;;;;;;;94.30;49.70;;;;;;;3.06;100.00;101501.75;5033032;28;20089;-44
2024/02/01 02:08:36;;;;;;;96.55;48.60;;;;;;;2.90;100.00;101493.13;5032884;28;20132;-44
2024/02/01 02:11:05;;;;;;;94.00;48.78;;;;;;;2.81;100.00;101478.28;5032768;28;20045;-42
2024/02/01 02:13:33;;;;;;;92.75;47.75;;;;;;;2.60;100.00;101475.78;5032615;28;20049;-46
2024/02/01 02:16:01;;;;;;;88.18;48.08;;;;;;;2.67;100.00;101482.75;5032429;28;20457;-43
2024/02/01 02:18:32;;;;;;;99.00;47.38;;;;;;;2.72;100.00;101480.97;5032535;28;20042;-45
2024/02/01 02:21:03;;;;;;;93.78;47.33;;;;;;;2.70;100.00;101469.59;5032766;28;20060;-48
2024/02/01 02:23:34;;;;;;;88.88;46.78;;;;;;;2.77;100.00;101471.25;5015383;28;20407;-44
2024/02/01 02:26:05;;;;;;;93.78;47.08;;;;;;;2.78;100.00;101473.00;5032501;28;20434;-44
2024/02/01 02:28:38;;;;;;;91.43;46.45;;;;;;;2.70;100.00;101464.31;5032365;28;20092;-45
2024/02/01 02:31:06;;;;;;;90.75;46.47;;;;;;;2.74;100.00;101457.25;5032333;28;20046;-44
2024/02/01 02:33:35;;;;;;;96.45;48.05;;;;;;;2.65;100.00;101463.47;5032661;28;20049;-44
2024/02/01 02:36:09;;;;;;;92.45;47.83;;;;;;;2.72;100.00;101467.81;5032293;28;20145;-44
2024/02/01 02:38:40;;;;;;;90.70;46.92;;;;;;;2.78;100.00;101454.56;5032491;28;20045;-45
2024/02/01 02:41:08;;;;;;;92.57;46.53;;;;;;;2.87;100.00;101459.75;5032175;28;20056;-45
2024/02/01 02:43:37;;;;;;;95.07;48.35;;;;;;;2.83;100.00;101455.41;5032905;28;20053;-44
2024/02/01 02:46:05;;;;;;;89.55;46.20;;;;;;;2.84;100.00;101454.50;5033782;28;20045;-44
2024/02/01 02:48:33;;;;;;;88.00;46.90;;;;;;;2.77;100.00;101452.81;5032861;28;20115;-44
2024/02/01 02:51:02;;;;;;;94.03;46.42;;;;;;;2.75;100.00;101457.22;5032097;28;20387;-43
2024/02/01 02:53:31;;;;;;;91.20;47.63;;;;;;;2.80;100.00;101451.94;5032531;28;20045;-44
2024/02/01 02:56:01;;;;;;;96.78;47.00;;;;;;;2.89;100.00;101443.91;5033554;28;20080;-45
2024/02/01 02:58:29;;;;;;;95.30;47.17;;;;;;;2.88;100.00;101444.81;5033774;28;20378;-45
2024/02/01 03:00:57;;;;;;;96.72;48.65;;;;;;;2.81;100.00;101453.69;5034551;28;20045;-45
2024/02/01 03:03:26;;;;;;;92.18;47.75;;;;;;;2.83;100.00;101446.63;5032326;28;20490;-44
2024/02/01 03:05:54;;;;;;;98.60;49.40;;;;;;;2.90;100.00;101450.97;5031943;28;20067;-44
2024/02/01 03:08:22;;;;;;;92.93;48.47;;;;;;;2.93;100.00;101448.28;5031815;28;20489;-45
2024/02/01 03:10:51;;;;;;;90.95;48.67;;;;;;;2.74;100.00;101439.69;5031846;28;20041;-44
2024/02/01 03:13:21;;;;;;;97.97;49.67;;;;;;;2.68;100.00;101439.72;5031816;28;20049;-43
2024/02/01 03:15:49;;;;;;;96.70;49.17;;;;;;;2.70;100.00;101445.88;5031708;28;20045;-44
2024/02/01 03:18:20;;;;;;;95.10;49.55;;;;;;;2.71;100.00;101442.34;5031698;28;20049;-45
2024/02/01 03:20:51;;;;;;;91.75;48.08;;;;;;;2.76;100.00;101439.66;5031568;28;20076;-45
2024/02/01 03:23:23;;;;;;;95.15;48.15;;;;;;;2.70;100.00;101439.69;5031202;28;20080;-44
2024/02/01 03:25:51;;;;;;;100.93;48.50;;;;;;;2.77;100.00;101442.28;5031352;28;20053;-43
2024/02/01 03:28:21;;;;;;;94.90;49.05;;;;;;;2.72;100.00;101437.94;5031188;28;20085;-47
2024/02/01 03:30:50;;;;;;;97.47;50.70;;;;;;;2.75;100.00;101435.28;5031220;28;20486;-44
2024/02/01 03:33:20;;;;;;;97.20;49.78;;;;;;;2.72;100.00;101425.66;5031191;28;20107;-48
2024/02/01 03:35:49;;;;;;;99.70;48.83;;;;;;;2.59;100.00;101416.97;5030944;28;20045;-44
2024/02/01 03:38:17;;;;;;;97.95;49.08;;;;;;;2.68;100.00;101416.00;5031217;28;20141;-44
2024/02/01 03:40:46;;;;;;;94.50;50.35;;;;;;;2.66;100.00;101412.53;5031189;28;20049;-44
2024/02/01 03:43:14;;;;;;;95.10;49.42;;;;;;;2.58;100.00;101419.63;5030787;28;20053;-44
2024/02/01 03:45:49;;;;;;;100.32;51.10;;;;;;;2.57;100.00;101409.97;5031152;28;20073;-43
2024/02/01 03:48:18;;;;;;;93.13;49.95;;;;;;;2.50;100.00;101401.25;5030846;28;20053;-44
2024/02/01 03:50:50;;;;;;;98.95;47.78;;;;;;;2.43;100.00;101402.19;5030980;28;20046;-44
2024/02/01 03:53:18;;;;;;;96.38;49.40;;;;;;;2.46;100.00;101403.94;5030350;28;20529;-43
2024/02/01 03:55:48;;;;;;;91.45;46.55;;;;;;;2.41;100.00;101400.44;5033366;28;20046;-46
2024/02/01 03:58:17;;;;;;;93.65;48.15;;;;;;;2.50;100.00;101400.38;5031452;28;20080;-51
2024/02/01 04:00:50;;;;;;;98.32;49.47;;;;;;;2.40;100.00;101394.31;5032626;28;20092;-42
2024/02/01 04:03:19;;;;;;;91.80;48.38;;;;;;;2.41;100.00;101384.66;5031538;28;20045;-44
2024/02/01 04:05:47;;;;;;;88.63;45.60;;;;;;;2.30;100.00;101393.50;5032077;28;20073;-44
2024/02/01 04:08:19;;;;;;;92.75;46.60;;;;;;;2.37;100.00;101393.47;5030866;28;20068;-44
2024/02/01 04:10:47;;;;;;;99.47;47.03;;;;;;;2.40;100.00;101388.16;5031676;28;20609;-44
2024/02/01 04:13:16;;;;;;;97.15;47.15;;;;;;;2.37;100.00;101390.84;5032032;28;20056;-45
2024/02/01 04:15:47;;;;;;;90.72;47.17;;;;;;;2.46;100.00;101381.09;5031534;28;20136;-44
2024/02/01 04:18:16;;;;;;;89.57;45.38;;;;;;;2.46;100.00;101375.84;5031248;28;20418;-45
2024/02/01 04:20:45;;;;;;;88.47;45.17;;;;;;;2.37;100.00;101375.91;5031377;28;20045;-45
2024/02/01 04:23:13;;;;;;;89.18;44.13;;;;;;;2.35;100.00;101374.19;5031612;28;20045;-45
2024/02/01 04:25:41;;;;;;;90.30;44.83;;;;;;;2.37;100.00;101367.13;5030788;28;20143;-42
2024/02/01 04:28:12;;;;;;;89.35;44.20;;;;;;;2.41;100.00;101374.09;5030594;28;20498;-44
2024/02/01 04:30:40;;;;;;;87.88;46.25;;;;;;;2.32;100.00;101371.56;5030714;28;20072;-44
2024/02/01 04:33:09;;;;;;;91.22;45.13;;;;;;;2.32;100.00;101379.47;5030721;28;20050;-45
2024/02/01 04:35:39;;;;;;;85.90;44.35;;;;;;;2.34;100.00;101372.44;5030607;28;20707;-44
2024/02/01 04:38:08;;;;;;;89.93;45.22;;;;;;;2.33;100.00;101376.84;5030547;28;20049;-44
2024/02/01 04:40:37;;;;;;;91.68;46.67;;;;;;;2.30;100.00;101371.56;5030681;28;20486;-45
2024/02/01 04:43:05;;;;;;;93.63;47.47;;;;;;;2.23;100.00;101362.88;5031009;28;20057;-44
2024/02/01 04:45:33;;;;;;;91.28;47.58;;;;;;;2.27;100.00;101354.06;5030628;28;20463;-42
2024/02/01 04:48:03;;;;;;;91.85;46.35;;;;;;;2.28;100.00;101350.53;5030630;28;20052;-44
2024/02/01 04:50:32;;;;;;;93.45;47.28;;;;;;;2.16;100.00;101345.38;5030447;28;20045;-44
2024/02/01 04:53:02;;;;;;;94.72;49.28;;;;;;;1.97;100.00;101347.28;5030490;28;20080;-43
2024/02/01 04:55:30;;;;;;;96.80;49.30;;;;;;;2.07;100.00;101350.72;5030494;28;20410;-44
2024/02/01 04:58:00;;;;;;;96.00;47.80;;;;;;;1.97;100.00;101347.28;5030859;28;20107;-44
2024/02/01 05:00:30;;;;;;;91.72;47.20;;;;;;;2.00;100.00;101341.13;5030411;28;20045;-44
2024/02/01 05:02:58;;;;;;;98.43;47.95;;;;;;;1.96;100.00;101349.94;5031523;28;20064;-44
2024/02/01 05:05:27;;;;;;;93.32;48.53;;;;;;;2.03;100.00;101341.13;5033926;28;20042;-43
2024/02/01 05:07:56;;;;;;;91.57;47.78;;;;;;;1.87;100.00;101339.47;5034338;28;20050;-44
2024/02/01 05:10:26;;;;;;;96.32;48.60;;;;;;;1.83;100.00;101333.34;5034067;28;20049;-44
2024/02/01 05:12:54;;;;;;;95.30;49.17;;;;;;;1.89;100.00;101343.81;5034113;28;20056;-45
2024/02/01 05:15:23;;;;;;;90.72;47.80;;;;;;;2.04;100.00;101342.84;5034134;28;20053;-43
2024/02/01 05:17:51;;;;;;;95.13;48.22;;;;;;;1.80;100.00;101349.16;5033923;28;20088;-44
2024/02/01 05:20:20;;;;;;;96.85;47.03;;;;;;;1.79;100.00;101346.53;5033740;28;20042;-43
2024/02/01 05:22:48;;;;;;;97.07;47.75;;;;;;;1.87;100.00;101350.88;5033568;28;20050;-43
2024/02/01 05:25:19;;;;;;;89.68;47.58;;;;;;;1.84;100.00;101345.63;5034286;28;20132;-44
2024/02/01 05:27:52;;;;;;;91.07;47.30;;;;;;;1.97;100.00;101336.75;5034199;28;20052;-45
2024/02/01 05:30:22;;;;;;;;;;;;;;;2.00;100.00;101334.09;5036065;28;20413;-45
2024/02/01 05:32:52;;;;;;;86.57;45.45;;;;;;;1.71;100.00;101339.56;5037979;28;19920;-44
2024/02/01 05:35:28;;;;;;;93.60;47.47;;;;;;;1.71;100.00;101349.22;5037987;28;20093;-44
2024/02/01 05:38:00;;;;;;;93.13;46.47;;;;;;;1.86;100.00;101349.13;5036127;28;20137;-45
2024/02/01 05:40:29;;;;;;;96.07;45.85;;;;;;;2.00;100.00;101349.88;5034817;28;20081;-44
2024/02/01 05:42:59;;;;;;;84.65;45.65;;;;;;;2.11;100.00;101341.91;5033763;28;20104;-44
2024/02/01 05:45:28;;;;;;;84.50;45.60;;;;;;;2.19;100.00;101347.97;5033856;28;20107;-45
2024/02/01 05:47:58;;;;;;;87.72;45.65;;;;;;;2.17;100.00;101327.81;5033573;28;20153;-45
2024/02/01 05:50:28;;;;;;;88.55;44.53;;;;;;;2.26;100.00;101325.97;5033191;28;20493;-45
2024/02/01 05:52:56;;;;;;;85.40;45.15;;;;;;;2.21;100.00;101325.13;5033013;28;20041;-43
2024/02/01 05:55:25;;;;;;;85.20;45.83;;;;;;;2.24;100.00;101317.22;5033031;28;20099;-45
2024/02/01 05:57:53;;;;;;;88.45;45.03;;;;;;;2.22;100.00;101321.66;5032805;28;20100;-44
2024/02/01 06:00:24;;;;;;;84.82;44.40;;;;;;;2.19;100.00;101323.41;5032913;28;20050;-42
2024/02/01 06:02:53;;;;;;;89.50;44.67;;;;;;;2.30;100.00;101319.78;5033271;28;20056;-44
2024/02/01 06:05:21;;;;;;;83.80;43.78;;;;;;;2.33;100.00;101321.53;5032703;28;20529;-44
2024/02/01 06:07:51;;;;;;;86.05;44.55;;;;;;;2.16;100.00;101320.81;5032821;28;20041;-44
2024/02/01 06:10:20;;;;;;;95.70;46.35;;;;;;;2.09;100.00;101319.13;5032956;28;20077;-43
2024/02/01 06:12:48;;;;;;;89.45;45.58;;;;;;;1.93;100.00;101315.72;5033081;28;20084;-44
2024/02/01 06:15:17;;;;;;;88.35;45.20;;;;;;;1.94;100.00;101312.22;5033041;28;20506;-44
2024/02/01 06:17:47;;;;;;;84.95;43.80;;;;;;;2.07;100.00;101298.06;5035499;28;20041;-46
2024/02/01 06:20:16;;;;;;;85.32;44.05;;;;;;;1.82;100.00;101299.16;5033852;28;20552;-43
2024/02/01 06:22:47;;;;;;;89.32;45.88;;;;;;;1.91;100.00;101310.47;5033017;28;20048;-43
2024/02/01 06:25:16;;;;;;;85.18;43.83;;;;;;;2.13;100.00;101308.56;5032929;28;20053;-42
2024/02/01 06:27:44;;;;;;;80.93;42.63;;;;;;;2.13;100.00;101311.19;5032729;28;20482;-45
2024/02/01 06:30:13;;;;;;;90.43;45.10;;;;;;;2.03;100.00;101301.63;5032621;28;20052;-44
2024/02/01 06:32:41;;;;;;;89.00;44.75;;;;;;;2.11;100.00;101312.94;5032627;28;20582;-43
2024/02/01 06:35:16;;;;;;;86.28;44.95;;;;;;;2.00;100.00;101318.28;5032325;28;20495;-43
2024/02/01 06:37:52;;;;;;;81.50;43.45;;;;;;;2.03;100.00;101312.16;5032245;28;20136;-45
2024/02/01 06:40:48;;;;;;;90.25;44.88;;;;;;;1.91;100.00;101317.50;5032427;28;20056;-44
2024/02/01 06:43:31;;;;;;;84.88;45.20;;;;;;;2.05;100.00;101315.66;5031939;28;20060;-43
2024/02/01 06:46:08;;;;;;;86.75;45.25;;;;;;;2.24;100.00;101317.22;5031885;28;20132;-44
2024/02/01 06:48:44;;;;;;;85.05;43.95;;;;;;;2.27;100.00;101322.47;5032107;28;20076;-44
2024/02/01 06:51:24;;;;;;;81.70;43.80;;;;;;;2.36;100.00;101325.91;5032022;28;20046;-43
2024/02/01 06:53:56;;;;;;;89.25;44.03;;;;;;;2.28;100.00;101328.59;5031835;28;20136;-46
2024/02/01 06:56:48;;;;;;;87.47;45.38;;;;;;;2.43;100.00;101309.16;5031619;28;20053;-45
2024/02/01 06:59:31;;;;;;;84.97;44.10;;;;;;;2.30;100.00;101313.66;5031594;28;20115;-43
2024/02/01 07:02:11;;;;;;;80.53;43.78;;;;;;;2.37;100.00;101310.09;5031680;28;20053;-43
2024/02/01 07:04:50;;;;;;;87.10;44.53;;;;;;;2.37;100.00;101293.41;5031223;28;20521;-45
2024/02/01 07:07:26;;;;;;;86.43;45.83;;;;;;;2.25;100.00;101299.69;5031541;28;20363;-44
2024/02/01 07:10:06;;;;;;;92.70;47.05;;;;;;;2.18;100.00;101297.97;5031187;28;20128;-43
2024/02/01 07:12:41;;;;;;;91.25;46.58;;;;;;;2.29;100.00;101296.97;5031229;28;20045;-44
2024/02/01 07:15:19;;;;;;;92.03;48.30;;;;;;;2.26;100.00;101291.75;5033560;28;20128;-44
2024/02/01 07:17:47;;;;;;;91.43;46.50;;;;;;;2.28;100.00;101302.28;5031882;28;20057;-43
2024/02/01 07:20:23;;;;;;;88.22;46.53;;;;;;;2.29;100.00;101296.97;5031675;28;20453;-41
2024/02/01 07:23:05;;;;;;;90.82;46.70;;;;;;;2.30;100.00;101298.72;5031487;28;20050;-44
2024/02/01 07:25:36;;;;;;;95.15;48.05;;;;;;;2.16;100.00;101295.38;5030797;28;20057;-43
2024/02/01 07:58:38;;;;;;;88.80;45.97;;;;;;;2.40;100.00;101261.78;5030448;28;20111;-42
2024/02/01 08:01:14;;;;;;;89.80;46.25;;;;;;;2.43;100.00;101260.00;5028722;28;20088;-42
2024/02/01 08:03:59;;;;;;;89.10;45.08;;;;;;;2.48;100.00;101249.41;5030167;28;20071;-42
2024/02/01 08:09:14;;;;;;;83.88;43.78;;;;;;;2.45;100.00;101246.81;5031729;28;20049;-42
2024/02/01 08:11:45;;;;;;;85.15;46.05;;;;;;;2.20;100.00;101256.72;5028950;28;20386;-42
2024/02/01 08:14:14;;;;;;;83.38;42.67;;;;;;;2.21;100.00;101240.03;5030034;28;20045;-42
2024/02/01 08:16:44;;;;;;;86.47;43.67;;;;;;;2.44;100.00;101247.69;5029485;28;20057;-44
2024/02/01 08:19:12;;;;;;;91.05;44.15;;;;;;;2.52;100.00;101245.84;5029749;28;20049;-42
2024/02/01 08:21:53;;;;;;;80.47;42.50;;;;;;;2.33;100.00;101246.94;5028110;28;20352;-42
2024/02/01 08:24:22;;;;;;;78.95;42.15;;;;;;;2.55;100.00;101256.34;5029888;28;20490;-43
2024/02/01 08:26:53;;;;;;;80.28;42.78;;;;;;;2.52;100.00;101240.59;5030071;28;20136;-44
2024/02/01 08:29:27;;;;;;;85.53;43.55;;;;;;;2.51;100.00;101244.09;5030077;28;20057;-42
2024/02/01 08:31:55;;;;;;;83.82;44.83;;;;;;;2.55;100.00;101232.66;5032659;28;20072;-43
2024/02/01 08:34:24;;;;;;;84.05;44.22;;;;;;;2.52;100.00;101225.66;5030174;28;20088;-44
2024/02/01 08:36:54;;;;;;;84.03;44.10;;;;;;;2.68;100.00;101223.69;5030497;28;20180;-43
2024/02/01 08:39:23;;;;;;;87.13;45.75;;;;;;;2.60;100.00;101233.44;5033645;28;20060;-43
2024/02/01 08:41:53;;;;;;;81.95;44.60;;;;;;;2.61;100.00;101229.94;5033026;28;20172;-42
2024/02/01 08:44:21;;;;;;;82.57;44.00;;;;;;;2.49;100.00;101230.94;5033752;28;20061;-43
2024/02/01 08:46:51;;;;;;;83.55;42.47;;;;;;;2.64;100.00;101227.28;5033057;28;20041;-43
2024/02/01 08:49:20;;;;;;;84.10;44.60;;;;;;;2.63;100.00;101219.38;5033358;28;20358;-41
2024/02/01 08:51:49;;;;;;;84.78;43.13;;;;;;;2.66;100.00;101228.13;5032776;28;20041;-43
2024/02/01 08:54:17;;;;;;;85.38;43.60;;;;;;;2.73;100.00;101229.78;5033850;28;20167;-42
2024/02/01 08:56:46;;;;;;;85.20;44.38;;;;;;;2.74;100.00;101221.00;5035423;28;20041;-43
2024/02/01 08:59:22;;;;;;;80.47;45.65;;;;;;;2.77;100.00;101213.03;5036902;28;20051;-49
2024/02/01 09:01:52;;;;;;;85.10;43.92;;;;;;;2.64;100.00;101206.19;5036861;28;20057;-45
2024/02/01 09:04:22;;;;;;;79.35;43.83;;;;;;;2.55;100.00;101211.56;5034851;28;20212;-43
2024/02/01 09:06:54;;;;;;;85.60;44.42;;;;;;;2.55;100.00;101211.56;5027396;28;20141;-42
2024/02/01 09:09:30;;;;;;;83.20;43.58;;;;;;;2.48;100.00;101178.28;5037526;28;20137;-44
2024/02/01 09:12:04;;;;;;;78.85;42.85;;;;;;;2.38;100.00;101216.16;5025637;28;20100;-43
2024/02/01 09:14:34;;;;;;;83.28;43.47;;;;;;;2.68;100.00;101218.44;5033342;28;20045;-43
2024/02/01 09:17:03;;;;;;;85.28;44.35;;;;;;;2.73;100.00;101199.94;5033066;28;20084;-42
2024/02/01 09:19:31;;;;;;;90.72;45.30;;;;;;;2.77;100.00;101215.69;5033031;28;20087;-42
2024/02/01 09:22:02;;;;;;;80.20;44.00;;;;;;;2.90;100.00;101195.31;5032097;28;20045;-40
2024/02/01 09:24:31;;;;;;;84.70;43.40;;;;;;;2.97;100.00;101201.34;5034789;28;20045;-42
2024/02/01 09:26:59;;;;;;;84.63;43.67;;;;;;;2.92;100.00;101201.44;5033221;28;20042;-44
2024/02/01 09:29:34;;;;;;;83.18;43.83;;;;;;;3.12;100.00;101203.78;5031976;28;20490;-41
2024/02/01 09:32:05;;;;;;;77.65;41.22;;;;;;;3.29;100.00;101208.81;5026530;28;20045;-42
2024/02/01 09:34:35;;;;;;;88.05;44.50;;;;;;;3.41;100.00;101198.94;5032305;28;20137;-41
2024/02/01 09:37:04;;;;;;;80.00;43.40;;;;;;;3.45;100.00;101208.53;5032153;28;20071;-44
2024/02/01 09:39:34;;;;;;;87.55;43.47;;;;;;;3.53;100.00;101211.06;5031688;28;20076;-43
2024/02/01 09:42:11;;;;;;;78.30;44.15;;;;;;;3.68;100.00;101207.31;5031650;28;20064;-41
2024/02/01 09:44:40;;;;;;;85.22;44.38;;;;;;;3.72;100.00;101206.34;5038436;28;20136;-43
2024/02/01 09:47:09;;;;;;;84.40;44.30;;;;;;;3.89;100.00;101206.06;5032930;28;20046;-46
2024/02/01 09:49:40;;;;;;;83.22;44.05;;;;;;;4.02;100.00;101203.19;5029954;28;20132;-42
2024/02/01 09:52:09;;;;;;;87.72;44.60;;;;;;;4.27;100.00;101197.44;5032565;28;20150;-45
2024/02/01 09:54:38;;;;;;;80.15;42.53;;;;;;;4.42;100.00;101201.56;5032355;28;20490;-42
2024/02/01 09:57:14;;;;;;;76.35;42.88;;;;;;;4.56;100.00;101194.22;5032328;28;20079;-43
2024/02/01 09:59:43;;;;;;;81.35;43.72;;;;;;;4.58;100.00;101197.72;5030762;28;20135;-44
2024/02/01 10:02:13;;;;;;;77.00;43.78;;;;;;;4.68;100.00;101193.09;5032105;28;20204;-43
2024/02/01 10:04:42;;;;;;;83.30;44.53;;;;;;;4.86;100.00;101188.28;5031699;28;20060;-41
2024/02/01 10:07:10;;;;;;;81.78;45.05;;;;;;;5.10;100.00;101186.88;5039828;28;20079;-41
2024/02/01 10:09:39;;;;;;;81.53;44.88;;;;;;;5.29;100.00;101170.56;5030841;28;20672;-43
2024/02/01 10:12:08;;;;;;;74.93;43.13;;;;;;;5.42;100.00;101166.75;5031590;28;20049;-43
2024/02/01 10:14:38;;;;;;;75.00;44.22;;;;;;;5.55;100.00;101175.22;5035098;28;20131;-42
2024/02/01 10:17:07;;;;;;;76.57;44.38;;;;;;;5.62;100.00;101172.41;5031463;28;20487;-42
2024/02/01 10:19:38;;;;;;;78.15;43.97;;;;;;;5.54;100.00;101163.78;5031033;28;20132;-45
2024/02/01 10:22:09;;;;;;;78.18;43.38;;;;;;;5.48;100.00;101161.28;5034181;28;20111;-42
2024/02/01 10:24:45;;;;;;;78.97;45.10;;;;;;;5.56;100.00;101158.44;5034587;28;20409;-42
2024/02/01 10:27:14;;;;;;;84.18;43.63;;;;;;;5.72;100.00;101154.50;5031893;28;20103;-41
2024/02/01 10:29:44;;;;;;;77.13;43.97;;;;;;;5.83;100.00;101146.28;5029899;28;20153;-41
2024/02/01 10:32:14;;;;;;;76.05;41.95;;;;;;;6.00;100.00;101133.50;5031424;28;20413;-43
2024/02/01 10:34:50;;;;;;;74.45;41.85;;;;;;;6.13;100.00;101134.03;5031738;28;20056;-42
2024/02/01 10:37:20;;;;;;;71.32;41.15;;;;;;;6.23;100.00;101120.47;5031438;28;20099;-43
2024/02/01 10:39:54;;;;;;;77.75;42.70;;;;;;;6.39;100.00;101117.38;5030588;28;20060;-44
2024/02/01 10:42:30;;;;;;;74.88;43.03;;;;;;;6.55;100.00;101111.56;5030924;28;20069;-42
2024/02/01 10:45:03;;;;;;;73.53;42.60;;;;;;;6.74;100.00;101101.28;5031617;28;20068;-42
2024/02/01 10:47:41;;;;;;;70.63;41.45;;;;;;;6.81;100.00;101097.53;5030280;28;20123;-42
2024/02/01 10:50:14;;;;;;;71.45;40.45;;;;;;;7.00;100.00;101091.66;5030107;28;20049;-44
2024/02/01 10:52:43;;;;;;;68.10;41.00;;;;;;;7.11;100.00;101087.72;5030744;28;20509;-42
2024/02/01 10:55:12;;;;;;;69.32;39.83;;;;;;;7.20;100.00;101078.59;5031402;28;20051;-44
2024/02/01 10:57:42;;;;;;;66.93;38.28;;;;;;;7.29;100.00;101086.25;5030735;28;20049;-48
2024/02/01 11:00:19;;;;;;;71.43;39.38;;;;;;;7.40;100.00;101080.56;5030013;28;20049;-43
2024/02/01 11:02:52;;;;;;;65.70;38.80;;;;;;;7.52;100.00;101058.03;5030950;28;20132;-44
2024/02/01 11:05:31;;;;;;;66.68;38.53;;;;;;;7.61;100.00;101065.69;5030896;28;20109;-43
2024/02/01 11:08:00;;;;;;;66.15;38.10;;;;;;;7.63;100.00;101062.09;5031866;28;20528;-44
2024/02/01 11:10:28;;;;;;;66.25;38.22;;;;;;;7.70;100.00;101054.75;5029638;28;20053;-43
2024/02/01 11:12:56;;;;;;;67.55;39.10;;;;;;;7.79;100.00;101057.06;5031091;28;20077;-46
2024/02/01 11:15:26;;;;;;;69.20;39.20;;;;;;;7.95;100.00;101046.78;5030701;28;20119;-45
2024/02/01 11:18:08;;;;;;;61.75;38.22;;;;;;;8.06;100.00;101046.38;5030765;28;20057;-41
2024/02/01 11:20:39;;;;;;;58.55;35.17;;;;;;;8.10;100.00;101045.31;5029129;28;20123;-43
2024/02/01 11:23:07;;;;;;;60.85;35.85;;;;;;;8.16;100.00;101043.31;5030909;28;20068;-42
2024/02/01 11:25:36;;;;;;;58.60;35.13;;;;;;;8.15;100.00;101049.56;5030240;28;20057;-46
2024/02/01 11:28:11;;;;;;;61.83;35.25;;;;;;;8.19;100.00;101039.66;5029895;28;20135;-42
2024/02/01 11:30:51;;;;;;;57.95;34.45;;;;;;;8.22;100.00;101039.56;5028870;28;20045;-42
2024/02/01 11:33:33;;;;;;;56.53;33.90;;;;;;;8.18;100.00;101032.63;5030141;28;20065;-43
2024/02/01 11:36:03;;;;;;;62.35;34.80;;;;;;;8.19;100.00;101026.38;5029865;28;20433;-42
2024/02/01 11:38:32;;;;;;;57.13;32.95;;;;;;;8.24;100.00;101029.75;5029492;28;20065;-41
2024/02/01 11:41:00;;;;;;;49.33;31.33;;;;;;;8.30;100.00;101038.34;5028871;28;20418;-45
2024/02/01 11:43:28;;;;;;;60.33;32.55;;;;;;;8.37;100.00;101033.69;5029780;28;20392;-43
2024/02/01 11:45:57;;;;;;;56.00;32.47;;;;;;;8.44;100.00;101029.00;5030050;28;20137;-43
2024/02/01 11:48:25;;;;;;;55.22;31.33;;;;;;;8.48;100.00;101026.16;5029907;28;20137;-42
2024/02/01 11:50:58;;;;;;;56.97;32.47;;;;;;;8.53;100.00;101028.66;5028516;28;20444;-44
2024/02/01 11:53:28;;;;;;;57.83;31.70;;;;;;;8.59;100.00;101029.28;5030455;28;20053;-42
2024/02/01 11:55:57;;;;;;;58.50;30.98;;;;;;;8.69;100.00;101026.25;5029742;28;20061;-42
2024/02/01 11:58:31;;;;;;;50.75;30.20;;;;;;;8.78;100.00;101024.09;5029982;28;20079;-44